createdAt,value
2019-03-30T00:00:30.919Z,27.33
2019-03-30T00:02:59.197Z,27.94
2019-03-30T00:05:27.522Z,26.68
2019-03-30T00:07:55.809Z,26.42
2019-03-30T00:10:24.214Z,27.84
2019-03-30T00:12:52.586Z,28.73
2019-03-30T00:15:20.866Z,27.23
2019-03-30T00:17:49.148Z,28.63
2019-03-30T00:20:17.471Z,28.26
2019-03-30T00:22:45.736Z,26.86
2019-03-30T00:25:14.008Z,26.27
2019-03-30T00:27:42.276Z,27.28
2019-03-30T00:30:10.919Z,27.07
2019-03-30T00:32:39.189Z,27.25
2019-03-30T00:35:07.499Z,27.50
2019-03-30T00:37:35.776Z,27.57
2019-03-30T00:40:05.468Z,27.07
2019-03-30T00:42:33.748Z,27.40
2019-03-30T00:45:02.034Z,26.93
2019-03-30T00:47:30.296Z,26.96
2019-03-30T00:49:58.562Z,26.89
2019-03-30T00:52:27.726Z,26.59
2019-03-30T00:54:55.995Z,26.11
2019-03-30T00:57:24.257Z,26.56
2019-03-30T00:59:52.502Z,26.49
2019-03-30T01:02:20.791Z,26.52
2019-03-30T01:04:49.041Z,26.49
2019-03-30T01:07:17.355Z,27.06
2019-03-30T01:09:45.653Z,26.25
2019-03-30T01:12:13.936Z,26.77
2019-03-30T01:14:42.208Z,27.53
2019-03-30T01:17:10.558Z,27.57
2019-03-30T01:19:38.835Z,26.58
2019-03-30T01:22:07.098Z,27.23
2019-03-30T01:24:35.352Z,26.72
2019-03-30T01:27:03.776Z,26.75
2019-03-30T01:29:32.102Z,26.55
2019-03-30T01:32:00.356Z,26.76
2019-03-30T01:34:28.630Z,26.49
2019-03-30T01:36:56.888Z,24.07
2019-03-30T01:39:25.165Z,24.61
2019-03-30T01:41:53.493Z,25.97
2019-03-30T01:44:21.751Z,25.65
2019-03-30T01:46:50.019Z,25.49
2019-03-30T01:49:18.288Z,25.76
2019-03-30T01:51:46.551Z,25.12
2019-03-30T01:54:14.795Z,24.64
2019-03-30T01:56:43.057Z,24.88
2019-03-30T01:59:11.325Z,25.35
2019-03-30T02:01:39.613Z,24.81
2019-03-30T02:04:07.881Z,25.15
2019-03-30T02:06:36.169Z,25.81
2019-03-30T02:09:05.306Z,25.84
2019-03-30T02:11:33.585Z,25.90
2019-03-30T02:14:01.855Z,26.18
2019-03-30T02:16:30.136Z,26.07
2019-03-30T02:18:58.380Z,24.86
2019-03-30T02:21:26.635Z,25.35
2019-03-30T02:23:54.904Z,25.28
2019-03-30T02:26:23.157Z,25.68
2019-03-30T02:28:51.428Z,25.85
2019-03-30T02:31:19.692Z,26.08
2019-03-30T02:33:47.946Z,25.02
2019-03-30T02:36:16.202Z,24.78
2019-03-30T02:38:44.470Z,25.26
2019-03-30T02:41:12.737Z,25.73
2019-03-30T02:43:41.002Z,25.04
2019-03-30T02:46:09.259Z,23.73
2019-03-30T02:48:37.555Z,24.45
2019-03-30T02:51:05.857Z,22.68
2019-03-30T02:53:34.125Z,24.30
2019-03-30T02:56:02.413Z,23.40
2019-03-30T02:58:30.676Z,24.47
2019-03-30T03:00:58.921Z,24.19
2019-03-30T03:03:27.272Z,23.32
2019-03-30T03:05:55.530Z,23.46
2019-03-30T03:08:23.779Z,24.29
2019-03-30T03:10:52.046Z,24.04
2019-03-30T03:13:20.294Z,24.27
2019-03-30T03:15:48.553Z,24.72
2019-03-30T03:18:16.816Z,24.35
2019-03-30T03:20:45.064Z,25.37
2019-03-30T03:23:13.329Z,25.52
2019-03-30T03:25:41.629Z,24.67
2019-03-30T03:28:09.896Z,23.16
2019-03-30T03:30:38.174Z,24.41
2019-03-30T03:33:06.443Z,24.79
2019-03-30T03:35:34.701Z,24.38
2019-03-30T03:38:03.097Z,24.14
2019-03-30T03:40:31.349Z,23.93
2019-03-30T03:42:59.687Z,24.49
2019-03-30T03:45:27.932Z,23.71
2019-03-30T03:47:56.224Z,24.86
2019-03-30T03:50:35.890Z,24.21
2019-03-30T03:53:04.310Z,24.27
2019-03-30T03:55:33.797Z,23.70
2019-03-30T03:58:03.136Z,24.34
2019-03-30T04:00:31.673Z,23.46
2019-03-30T04:03:01.287Z,24.64
2019-03-30T04:05:29.609Z,24.97
2019-03-30T04:07:59.450Z,24.75
2019-03-30T04:10:30.145Z,23.02
2019-03-30T04:12:59.164Z,22.97
2019-03-30T04:15:27.480Z,23.12
2019-03-30T04:17:55.747Z,24.04
2019-03-30T04:20:24.440Z,23.88
2019-03-30T04:22:54.251Z,24.13
2019-03-30T04:25:22.815Z,23.90
2019-03-30T04:27:51.066Z,22.35
2019-03-30T04:30:19.339Z,22.23
2019-03-30T04:32:47.610Z,22.67
2019-03-30T04:35:15.887Z,21.24
2019-03-30T04:37:44.156Z,21.67
2019-03-30T04:40:12.410Z,21.93
2019-03-30T04:42:40.718Z,22.67
2019-03-30T04:45:09.055Z,22.66
2019-03-30T04:47:37.322Z,22.72
2019-03-30T04:50:06.607Z,22.13
2019-03-30T04:52:34.853Z,22.83
2019-03-30T04:55:03.985Z,21.13
2019-03-30T04:57:32.229Z,22.65
2019-03-30T05:00:00.517Z,22.14
2019-03-30T05:02:28.775Z,21.66
2019-03-30T05:04:57.052Z,21.19
2019-03-30T05:07:25.348Z,22.95
2019-03-30T05:09:53.631Z,22.69
2019-03-30T05:12:21.896Z,22.24
2019-03-30T05:14:50.213Z,24.30
2019-03-30T05:17:18.514Z,23.88
2019-03-30T05:19:46.816Z,24.53
2019-03-30T05:22:16.700Z,23.89
2019-03-30T05:24:45.128Z,25.22
2019-03-30T05:27:13.410Z,25.00
2019-03-30T05:29:41.712Z,24.68
2019-03-30T05:32:09.963Z,22.98
2019-03-30T05:34:38.224Z,22.94
2019-03-30T05:37:06.514Z,22.44
2019-03-30T05:39:34.790Z,22.42
2019-03-30T05:42:03.059Z,22.54
2019-03-30T05:44:31.318Z,22.99
2019-03-30T05:46:59.574Z,21.29
2019-03-30T05:49:27.850Z,23.09
2019-03-30T05:51:56.127Z,23.30
2019-03-30T05:54:24.404Z,22.87
2019-03-30T05:56:52.661Z,22.24
2019-03-30T05:59:20.960Z,22.56
2019-03-30T06:01:49.246Z,24.16
2019-03-30T06:04:17.517Z,24.14
2019-03-30T06:06:45.776Z,22.87
2019-03-30T06:09:14.038Z,23.90
2019-03-30T06:11:42.328Z,24.29
2019-03-30T06:14:10.584Z,24.13
2019-03-30T06:16:38.880Z,23.25
2019-03-30T06:19:07.141Z,23.79
2019-03-30T06:21:35.407Z,23.53
2019-03-30T06:24:03.783Z,22.66
2019-03-30T06:26:32.043Z,22.55
2019-03-30T06:29:00.322Z,22.48
2019-03-30T06:31:28.583Z,22.91
2019-03-30T06:33:56.843Z,22.68
2019-03-30T06:36:25.121Z,22.54
2019-03-30T06:38:53.395Z,22.66
2019-03-30T06:41:21.680Z,21.83
2019-03-30T06:43:49.957Z,22.32
2019-03-30T06:46:18.307Z,21.60
2019-03-30T06:48:46.610Z,22.27
2019-03-30T06:51:14.926Z,22.06
2019-03-30T06:53:43.201Z,23.89
2019-03-30T06:56:11.550Z,23.58
2019-03-30T06:58:39.740Z,23.66
2019-03-30T07:01:08.074Z,23.89
2019-03-30T07:03:36.643Z,23.15
2019-03-30T07:06:04.981Z,23.20
2019-03-30T07:08:33.932Z,23.32
2019-03-30T07:11:03.181Z,23.27
2019-03-30T07:13:34.072Z,24.77
2019-03-30T07:16:03.908Z,23.83
2019-03-30T07:18:32.849Z,24.41
2019-03-30T07:21:01.116Z,22.87
2019-03-30T07:23:29.396Z,22.87
2019-03-30T07:25:57.657Z,22.55
2019-03-30T07:28:25.939Z,22.73
2019-03-30T07:30:54.201Z,23.66
2019-03-30T07:33:22.555Z,24.65
2019-03-30T07:35:50.835Z,25.13
2019-03-30T07:38:19.107Z,23.90
2019-03-30T07:40:47.462Z,24.04
2019-03-30T07:43:15.794Z,23.70
2019-03-30T07:45:44.079Z,23.88
2019-03-30T07:48:12.358Z,24.03
2019-03-30T07:50:40.645Z,23.40
2019-03-30T07:53:08.913Z,25.57
2019-03-30T07:55:37.249Z,24.92
2019-03-30T07:58:05.539Z,25.49
2019-03-30T08:00:33.854Z,23.23
2019-03-30T08:03:02.134Z,24.30
2019-03-30T08:05:30.435Z,24.63
2019-03-30T08:07:58.717Z,26.16
2019-03-30T08:10:26.999Z,26.54
2019-03-30T08:12:55.264Z,26.30
2019-03-30T08:15:23.623Z,25.74
2019-03-30T08:17:51.892Z,24.61
2019-03-30T08:20:20.158Z,25.51
2019-03-30T08:22:48.431Z,25.27
2019-03-30T08:25:16.710Z,24.94
2019-03-30T08:27:45.059Z,25.41
2019-03-30T08:30:13.396Z,26.67
2019-03-30T08:32:41.670Z,26.76
2019-03-30T08:35:10.011Z,26.90
2019-03-30T08:37:38.283Z,26.26
2019-03-30T08:40:07.202Z,26.65
2019-03-30T08:42:35.578Z,24.98
2019-03-30T08:45:05.604Z,25.43
2019-03-30T08:47:33.904Z,24.75
2019-03-30T08:50:02.166Z,27.08
2019-03-30T08:52:30.453Z,27.29
2019-03-30T08:54:58.735Z,28.10
2019-03-30T08:57:27.003Z,28.45
2019-03-30T08:59:55.272Z,27.51
2019-03-30T09:02:23.579Z,27.07
2019-03-30T09:04:51.844Z,26.60
2019-03-30T09:07:20.123Z,27.63
2019-03-30T09:09:48.404Z,29.28
2019-03-30T09:12:16.666Z,29.13
2019-03-30T09:14:44.962Z,27.47
2019-03-30T09:17:13.217Z,26.56
2019-03-30T09:19:41.469Z,26.86
2019-03-30T09:22:09.782Z,27.75
2019-03-30T09:24:38.048Z,27.57
2019-03-30T09:27:06.314Z,27.47
2019-03-30T09:29:34.582Z,26.76
2019-03-30T09:32:13.547Z,27.30
2019-03-30T09:34:32.846Z,29.34
2019-03-30T09:37:01.144Z,26.78
2019-03-30T09:39:29.439Z,26.83
2019-03-30T09:41:57.731Z,27.53
2019-03-30T09:44:26.024Z,30.03
2019-03-30T09:46:54.298Z,29.70
2019-03-30T09:49:22.578Z,28.47
2019-03-30T09:51:50.872Z,28.97
2019-03-30T09:54:24.083Z,28.76
2019-03-30T09:56:49.162Z,30.07
2019-03-30T09:59:17.476Z,28.42
2019-03-30T10:01:45.750Z,29.23
2019-03-30T10:04:14.066Z,28.11
2019-03-30T10:06:42.349Z,31.29
2019-03-30T10:09:10.641Z,30.79
2019-03-30T10:11:38.925Z,29.60
2019-03-30T10:14:07.214Z,29.97
2019-03-30T10:16:40.109Z,31.48
2019-03-30T10:19:16.552Z,31.64
2019-03-30T10:21:45.402Z,31.79
2019-03-30T10:24:13.688Z,31.86
2019-03-30T10:26:42.020Z,31.07
2019-03-30T10:29:10.353Z,31.70
2019-03-30T10:31:38.693Z,32.98
2019-03-30T10:34:07.094Z,33.31
2019-03-30T10:36:35.384Z,33.99
2019-03-30T10:39:05.532Z,33.69
2019-03-30T10:41:33.875Z,33.01
2019-03-30T10:44:02.143Z,33.11
2019-03-30T10:46:30.415Z,32.77
2019-03-30T10:48:58.712Z,33.37
2019-03-30T10:51:26.994Z,32.43
2019-03-30T10:53:55.284Z,32.98
2019-03-30T10:56:23.570Z,32.25
2019-03-30T10:58:51.869Z,33.08
2019-03-30T11:01:20.217Z,32.22
2019-03-30T11:03:48.471Z,31.53
2019-03-30T11:06:16.932Z,33.25
2019-03-30T11:08:45.210Z,32.25
2019-03-30T11:11:13.509Z,32.55
2019-03-30T11:13:41.793Z,31.86
2019-03-30T11:16:10.066Z,30.83
2019-03-30T11:18:38.378Z,31.77
2019-03-30T11:21:06.637Z,31.83
2019-03-30T11:23:34.938Z,33.31
2019-03-30T11:26:03.218Z,32.75
2019-03-30T11:28:31.506Z,31.11
2019-03-30T11:30:59.861Z,32.05
2019-03-30T11:33:28.143Z,31.53
2019-03-30T11:35:56.415Z,30.86
2019-03-30T11:38:24.722Z,32.69
2019-03-30T11:40:52.998Z,34.37
2019-03-30T11:43:21.302Z,34.39
2019-03-30T11:45:49.580Z,37.31
2019-03-30T11:48:17.845Z,35.59
2019-03-30T11:50:46.130Z,35.30
2019-03-30T11:53:14.396Z,34.94
2019-03-30T11:55:42.679Z,35.02
2019-03-30T11:58:10.952Z,33.16
2019-03-30T12:00:39.288Z,34.95
2019-03-30T12:03:07.679Z,34.28
2019-03-30T12:05:35.956Z,34.54
2019-03-30T12:08:04.264Z,35.29
2019-03-30T12:10:32.625Z,37.14
2019-03-30T12:13:00.918Z,38.71
2019-03-30T12:15:29.218Z,34.87
2019-03-30T12:17:57.574Z,38.31
2019-03-30T12:20:25.888Z,40.08
2019-03-30T12:22:54.156Z,38.94
2019-03-30T12:25:34.738Z,37.46
2019-03-30T12:27:52.476Z,40.31
2019-03-30T12:30:20.811Z,40.75
2019-03-30T12:32:49.081Z,40.36
2019-03-30T12:35:17.435Z,40.27
2019-03-30T12:37:45.727Z,43.21
2019-03-30T12:40:14.130Z,43.38
2019-03-30T12:42:42.472Z,44.28
2019-03-30T12:45:12.168Z,43.27
2019-03-30T12:47:40.461Z,41.00
2019-03-30T12:50:09.093Z,43.23
2019-03-30T12:52:37.379Z,44.26
2019-03-30T12:55:05.637Z,44.80
2019-03-30T12:57:33.962Z,41.37
2019-03-30T13:00:02.246Z,41.70
2019-03-30T13:02:30.624Z,41.98
2019-03-30T13:04:58.912Z,42.07
2019-03-30T13:07:27.181Z,40.30
2019-03-30T13:09:55.462Z,39.15
2019-03-30T13:12:23.809Z,41.74
2019-03-30T13:14:52.099Z,39.79
2019-03-30T13:17:20.360Z,39.78
2019-03-30T13:19:48.628Z,40.91
2019-03-30T13:22:16.935Z,44.75
2019-03-30T13:24:45.208Z,46.02
2019-03-30T13:27:13.523Z,46.90
2019-03-30T13:29:41.786Z,43.30
2019-03-30T13:32:10.154Z,43.94
2019-03-30T13:34:38.411Z,45.79
2019-03-30T13:37:17.115Z,46.27
2019-03-30T13:39:45.831Z,46.77
2019-03-30T13:42:15.191Z,46.76
2019-03-30T13:44:43.469Z,45.54
2019-03-30T13:47:11.836Z,40.05
2019-03-30T13:49:40.110Z,41.80
2019-03-30T13:52:08.392Z,42.98
2019-03-30T13:54:38.747Z,45.47
2019-03-30T13:57:06.659Z,45.76
2019-03-30T13:59:34.930Z,46.92
2019-03-30T14:02:03.222Z,41.80
2019-03-30T14:04:31.491Z,44.12
2019-03-30T14:06:59.855Z,43.05
2019-03-30T14:09:28.128Z,42.43
2019-03-30T14:11:56.414Z,43.55
2019-03-30T14:14:24.678Z,44.99
2019-03-30T14:16:52.947Z,45.41
2019-03-30T14:19:21.242Z,45.41
2019-03-30T14:21:49.507Z,45.90
2019-03-30T14:24:17.773Z,46.49
2019-03-30T14:26:46.050Z,44.77
2019-03-30T14:29:14.368Z,43.57
2019-03-30T14:31:42.632Z,41.89
2019-03-30T14:34:10.892Z,42.29
2019-03-30T14:36:39.152Z,42.45
2019-03-30T14:39:07.965Z,44.73
2019-03-30T14:41:36.594Z,42.30
2019-03-30T14:44:04.870Z,42.38
2019-03-30T14:46:33.148Z,42.19
2019-03-30T14:49:01.424Z,42.80
2019-03-30T14:51:29.703Z,43.65
2019-03-30T14:53:57.975Z,42.66
2019-03-30T14:56:26.256Z,41.50
2019-03-30T14:58:54.614Z,42.28
2019-03-30T15:01:22.875Z,43.95
2019-03-30T15:03:51.140Z,43.68
2019-03-30T15:06:19.422Z,46.02
2019-03-30T15:08:47.682Z,43.42
2019-03-30T15:11:15.965Z,42.96
2019-03-30T15:13:44.321Z,44.21
2019-03-30T15:16:20.156Z,46.27
2019-03-30T15:18:48.408Z,44.90
2019-03-30T15:21:16.769Z,46.39
2019-03-30T15:23:45.047Z,42.80
2019-03-30T15:26:13.298Z,45.93
2019-03-30T15:28:42.858Z,44.45
2019-03-30T15:31:11.329Z,44.14
2019-03-30T15:33:39.626Z,46.92
2019-03-30T15:36:07.887Z,47.61
2019-03-30T15:38:36.169Z,46.62
2019-03-30T15:41:04.893Z,46.01
2019-03-30T15:43:38.512Z,43.63
2019-03-30T15:46:03.269Z,45.49
2019-03-30T15:48:31.544Z,47.43
2019-03-30T15:50:59.816Z,48.37
2019-03-30T15:53:28.106Z,47.04
2019-03-30T15:55:56.402Z,46.02
2019-03-30T15:58:24.762Z,43.45
2019-03-30T16:00:56.946Z,46.66
2019-03-30T16:03:25.395Z,45.18
2019-03-30T16:05:53.723Z,41.32
2019-03-30T16:08:21.995Z,42.62
2019-03-30T16:10:52.319Z,42.85
2019-03-30T16:13:20.410Z,42.75
2019-03-30T16:15:48.685Z,39.12
2019-03-30T16:18:16.978Z,43.53
2019-03-30T16:20:45.265Z,43.51
2019-03-30T16:23:13.530Z,41.55
2019-03-30T16:25:41.908Z,40.68
2019-03-30T16:28:10.288Z,41.49
2019-03-30T16:30:38.589Z,40.28
2019-03-30T16:33:06.945Z,40.41
2019-03-30T16:35:35.221Z,40.67
2019-03-30T16:38:03.484Z,40.07
2019-03-30T16:40:31.754Z,41.48
2019-03-30T16:43:00.030Z,38.25
2019-03-30T16:45:28.334Z,38.93
2019-03-30T16:47:56.638Z,38.02
2019-03-30T16:50:24.934Z,35.14
2019-03-30T16:52:53.189Z,36.00
2019-03-30T16:55:21.503Z,34.18
2019-03-30T16:57:49.766Z,37.20
2019-03-30T17:00:18.729Z,36.30
2019-03-30T17:02:46.998Z,34.71
2019-03-30T17:05:15.329Z,36.95
2019-03-30T17:07:43.592Z,37.38
2019-03-30T17:10:12.131Z,35.71
2019-03-30T17:12:40.533Z,35.68
2019-03-30T17:15:09.171Z,35.74
2019-03-30T17:17:37.471Z,34.25
2019-03-30T17:20:08.087Z,33.69
2019-03-30T17:22:36.369Z,34.95
2019-03-30T17:25:06.286Z,35.25
2019-03-30T17:27:35.107Z,34.68
2019-03-30T17:30:04.373Z,35.14
2019-03-30T17:32:32.638Z,36.55
2019-03-30T17:35:00.921Z,36.05
2019-03-30T17:37:29.239Z,34.26
2019-03-30T17:39:57.506Z,35.16
2019-03-30T17:42:25.838Z,35.64
2019-03-30T17:44:54.149Z,36.04
2019-03-30T17:47:22.405Z,36.25
2019-03-30T17:49:50.708Z,35.16
2019-03-30T17:52:19.004Z,36.92
2019-03-30T17:54:47.253Z,36.34
2019-03-30T17:57:17.506Z,36.35
2019-03-30T17:59:45.533Z,35.94
2019-03-30T18:02:13.874Z,34.17
2019-03-30T18:04:42.147Z,34.61
2019-03-30T18:07:13.523Z,35.43
2019-03-30T18:09:40.436Z,34.88
2019-03-30T18:12:08.699Z,36.08
2019-03-30T18:14:36.974Z,35.68
2019-03-30T18:17:05.342Z,35.75
2019-03-30T18:19:33.602Z,35.51
2019-03-30T18:22:01.888Z,35.88
2019-03-30T18:24:30.318Z,36.13
2019-03-30T18:26:58.603Z,35.62
2019-03-30T18:29:26.892Z,34.66
2019-03-30T18:31:55.184Z,35.99
2019-03-30T18:34:23.468Z,36.33
2019-03-30T18:36:51.817Z,36.07
2019-03-30T18:39:20.135Z,35.62
2019-03-30T18:41:48.415Z,35.54
2019-03-30T18:44:17.276Z,35.44
2019-03-30T18:46:45.614Z,35.80
2019-03-30T18:49:13.901Z,35.74
2019-03-30T18:51:42.942Z,35.02
2019-03-30T18:54:16.574Z,34.03
2019-03-30T18:56:44.833Z,35.45
2019-03-30T18:59:13.120Z,35.00
2019-03-30T19:01:41.394Z,34.68
2019-03-30T19:04:09.674Z,33.76
2019-03-30T19:06:37.943Z,34.21
2019-03-30T19:09:07.239Z,34.02
2019-03-30T19:11:35.921Z,33.42
2019-03-30T19:14:04.327Z,34.44
2019-03-30T19:16:32.585Z,35.48
2019-03-30T19:19:00.862Z,34.12
2019-03-30T19:21:29.156Z,35.03
2019-03-30T19:23:57.420Z,35.33
2019-03-30T19:26:25.714Z,34.77
2019-03-30T19:28:56.529Z,34.00
2019-03-30T19:31:23.979Z,34.94
2019-03-30T19:33:52.273Z,34.70
2019-03-30T19:36:20.522Z,34.80
2019-03-30T19:38:48.821Z,33.92
2019-03-30T19:41:17.090Z,34.01
2019-03-30T19:43:45.376Z,33.75
2019-03-30T19:46:13.650Z,33.71
2019-03-30T19:48:41.937Z,33.29
2019-03-30T19:51:10.236Z,32.29
2019-03-30T19:53:38.615Z,31.73
2019-03-30T19:56:06.999Z,32.70
2019-03-30T19:58:35.244Z,32.22
2019-03-30T20:01:03.510Z,31.39
2019-03-30T20:03:31.775Z,32.69
2019-03-30T20:06:00.071Z,31.14
2019-03-30T20:08:28.332Z,30.77
2019-03-30T20:10:56.656Z,31.31
2019-03-30T20:13:24.940Z,30.40
2019-03-30T20:15:53.220Z,30.55
2019-03-30T20:18:21.723Z,32.30
2019-03-30T20:20:49.993Z,30.09
2019-03-30T20:23:18.363Z,29.82
2019-03-30T20:25:46.638Z,28.98
2019-03-30T20:28:14.906Z,31.63
2019-03-30T20:30:43.194Z,31.13
2019-03-30T20:33:11.566Z,28.94
2019-03-30T20:35:39.901Z,29.88
2019-03-30T20:38:09.830Z,30.45
2019-03-30T20:40:38.177Z,30.10
2019-03-30T20:43:06.445Z,30.73
2019-03-30T20:45:34.921Z,29.92
2019-03-30T20:48:03.209Z,31.57
2019-03-30T20:50:31.587Z,30.68
2019-03-30T20:52:59.921Z,31.93
2019-03-30T20:55:28.200Z,32.13
2019-03-30T20:57:56.495Z,32.05
2019-03-30T21:00:24.824Z,32.21
2019-03-30T21:02:53.121Z,30.60
2019-03-30T21:05:21.393Z,30.20
2019-03-30T21:07:49.696Z,30.48
2019-03-30T21:10:18.040Z,31.47
2019-03-30T21:12:46.308Z,31.72
2019-03-30T21:15:16.482Z,32.12
2019-03-30T21:17:44.772Z,31.79
2019-03-30T21:20:13.927Z,30.96
2019-03-30T21:22:42.214Z,29.12
2019-03-30T21:25:11.240Z,30.37
2019-03-30T21:27:39.517Z,31.72
2019-03-30T21:30:09.355Z,31.74
2019-03-30T21:32:37.714Z,29.38
2019-03-30T21:35:07.487Z,29.23
2019-03-30T21:37:35.813Z,28.91
2019-03-30T21:40:05.738Z,29.70
2019-03-30T21:42:34.018Z,30.26
2019-03-30T21:45:02.277Z,30.30
2019-03-30T21:47:30.557Z,30.96
2019-03-30T21:49:58.883Z,30.42
2019-03-30T21:52:27.175Z,31.39
2019-03-30T21:54:57.961Z,28.78
2019-03-30T21:57:27.997Z,29.78
2019-03-30T22:00:08.997Z,30.44
2019-03-30T22:02:26.279Z,31.47
2019-03-30T22:04:54.586Z,31.40
2019-03-30T22:07:22.912Z,31.19
2019-03-30T22:09:51.236Z,30.46
2019-03-30T22:12:19.529Z,31.08
2019-03-30T22:14:47.812Z,31.29
2019-03-30T22:17:16.097Z,31.21
2019-03-30T22:19:44.365Z,29.81
2019-03-30T22:22:12.649Z,30.48
2019-03-30T22:24:40.941Z,30.44
2019-03-30T22:27:09.217Z,30.40
2019-03-30T22:29:37.498Z,31.17
2019-03-30T22:32:05.806Z,30.33
2019-03-30T22:34:34.068Z,30.42
2019-03-30T22:37:02.331Z,30.78
2019-03-30T22:39:30.586Z,31.15
2019-03-30T22:41:58.869Z,28.86
2019-03-30T22:44:27.133Z,29.88
2019-03-30T22:46:55.403Z,31.13
2019-03-30T22:49:23.682Z,30.97
2019-03-30T22:51:51.956Z,31.93
2019-03-30T22:54:20.229Z,31.26
2019-03-30T22:56:48.495Z,30.98
2019-03-30T22:59:16.761Z,31.50
2019-03-30T23:01:45.012Z,30.68
2019-03-30T23:04:13.273Z,30.90
2019-03-30T23:06:41.543Z,30.67
2019-03-30T23:09:11.570Z,30.97
2019-03-30T23:11:39.795Z,30.22
2019-03-30T23:14:08.049Z,30.12
2019-03-30T23:16:36.324Z,30.70
2019-03-30T23:19:04.663Z,30.12
2019-03-30T23:21:32.927Z,30.39
2019-03-30T23:24:01.177Z,30.57
2019-03-30T23:26:29.443Z,30.83
2019-03-30T23:28:59.445Z,30.42
2019-03-30T23:31:27.691Z,30.12
2019-03-30T23:33:55.986Z,29.17
2019-03-30T23:36:24.234Z,29.54
2019-03-30T23:38:52.506Z,28.55
2019-03-30T23:41:20.778Z,28.96
2019-03-30T23:43:49.026Z,27.91
2019-03-30T23:46:17.292Z,27.05
2019-03-30T23:48:45.569Z,28.56
2019-03-30T23:51:13.819Z,28.34
2019-03-30T23:53:42.093Z,28.63
2019-03-30T23:56:21.566Z,29.39
2019-03-30T23:58:50.106Z,27.37
